Time;durP1;ratioP1;P1;durP2;ratioP2;P2;SDS_P1;SDS_P2;PMS_P1;PMS_P2;Temp;Humidity;BMP_temperature;BMP_pressure;BME280_temperature;BME280_humidity;BME280_pressure;Samples;Min_cycle;Max_cycle;Signal;HPM_P1;HPM_P2
2021/01/19 00:01:17;;;;;;;13.95;11.90;;;23.10;30.70;;;;;;4999116;28;20414;-39
2021/01/19 00:03:43;;;;;;;12.50;10.73;;;23.00;30.60;;;;;;4985320;28;20118;-40
2021/01/19 00:06:09;;;;;;;13.95;12.15;;;23.10;30.70;;;;;;4983165;28;20034;-40
2021/01/19 00:08:34;;;;;;;12.68;11.35;;;23.00;30.80;;;;;;4999442;28;20852;-39
2021/01/19 00:11:05;;;;;;;15.57;12.40;;;23.00;31.40;;;;;;5001281;28;20178;-40
2021/01/19 00:13:32;;;;;;;13.52;11.75;;;23.00;30.80;;;;;;5008473;28;20033;-40
2021/01/19 00:15:57;;;;;;;13.65;11.55;;;23.00;30.90;;;;;;5001898;28;20026;-42
2021/01/19 00:18:25;;;;;;;14.07;12.45;;;22.90;30.90;;;;;;4991721;28;20046;-40
2021/01/19 00:20:51;;;;;;;14.82;12.02;;;22.90;30.90;;;;;;4991131;28;20042;-39
2021/01/19 00:23:17;;;;;;;15.10;12.82;;;22.90;30.90;;;;;;4990893;28;20077;-40
2021/01/19 00:25:43;;;;;;;14.32;12.35;;;22.90;30.90;;;;;;4990021;28;20066;-40
2021/01/19 00:28:09;;;;;;;14.40;12.23;;;22.90;30.90;;;;;;4991319;28;20050;-39
2021/01/19 00:30:42;;;;;;;13.75;11.52;;;22.80;30.90;;;;;;4995560;28;20037;-39
2021/01/19 00:33:09;;;;;;;14.50;12.48;;;22.80;30.90;;;;;;4993765;28;20354;-39
2021/01/19 00:35:36;;;;;;;14.60;12.13;;;22.80;30.90;;;;;;4994949;28;20030;-41
2021/01/19 00:38:02;;;;;;;16.17;13.13;;;22.80;30.90;;;;;;4994060;28;20046;-40
2021/01/19 00:40:29;;;;;;;14.15;12.18;;;22.80;31.00;;;;;;4994097;28;20038;-40
2021/01/19 00:42:56;;;;;;;15.68;12.85;;;22.70;30.90;;;;;;4995005;28;20041;-40
2021/01/19 00:45:21;;;;;;;15.65;13.23;;;22.80;31.00;;;;;;5001858;28;20026;-40
2021/01/19 00:47:47;;;;;;;14.68;12.93;;;22.70;31.00;;;;;;4994150;28;20496;-39
2021/01/19 00:50:13;;;;;;;14.60;12.93;;;22.70;31.00;;;;;;4993948;28;20381;-39
2021/01/19 00:52:41;;;;;;;14.32;12.70;;;22.70;31.10;;;;;;4990460;28;20022;-39
2021/01/19 00:55:11;;;;;;;15.70;13.63;;;22.70;31.10;;;;;;4978650;28;20369;-41
2021/01/19 00:57:39;;;;;;;15.48;13.30;;;22.70;31.10;;;;;;4976817;28;20145;-39
2021/01/19 01:00:06;;;;;;;14.95;13.23;;;22.70;31.10;;;;;;5012205;28;20485;-43
2021/01/19 01:02:35;;;;;;;15.30;13.15;;;22.60;31.10;;;;;;4995040;28;20061;-42
2021/01/19 01:05:03;;;;;;;15.98;12.98;;;22.60;31.10;;;;;;4994753;28;20054;-46
2021/01/19 01:07:38;;;;;;;17.85;13.57;;;22.60;31.10;;;;;;4991386;28;20126;-42
2021/01/19 01:10:07;;;;;;;15.02;13.20;;;22.60;31.10;;;;;;4993744;28;20050;-39
2021/01/19 01:12:33;;;;;;;16.95;14.05;;;22.60;31.10;;;;;;4990554;28;20380;-40
2021/01/19 01:14:59;;;;;;;16.85;15.05;;;22.60;31.10;;;;;;4995030;28;20456;-39
2021/01/19 01:17:25;;;;;;;17.85;13.93;;;22.50;31.10;;;;;;4990501;28;20026;-39
2021/01/19 01:19:50;;;;;;;17.65;14.57;;;22.50;31.10;;;;;;4999582;28;20025;-45
2021/01/19 01:22:16;;;;;;;15.63;13.77;;;22.50;31.10;;;;;;5000061;28;20034;-39
2021/01/19 01:24:42;;;;;;;16.92;14.88;;;22.50;31.10;;;;;;5007994;28;20030;-38
2021/01/19 01:27:08;;;;;;;17.27;14.68;;;22.50;31.10;;;;;;4966091;28;637978;-39
2021/01/19 01:29:34;;;;;;;16.27;13.95;;;22.50;31.10;;;;;;4996833;28;20373;-38
2021/01/19 01:31:59;;;;;;;17.60;15.57;;;22.40;31.10;;;;;;5001242;28;20412;-40
2021/01/19 01:34:25;;;;;;;17.73;14.70;;;22.40;31.10;;;;;;4998793;28;20033;-40
2021/01/19 01:36:51;;;;;;;16.42;14.23;;;22.40;31.10;;;;;;5006238;28;20105;-38
2021/01/19 01:39:17;;;;;;;17.77;15.35;;;22.40;31.10;;;;;;5004592;28;20124;-38
2021/01/19 01:41:43;;;;;;;19.52;14.75;;;22.40;31.10;;;;;;4994617;28;20096;-39
2021/01/19 01:44:09;;;;;;;17.63;15.45;;;22.40;31.10;;;;;;5015891;28;20109;-40
2021/01/19 01:46:36;;;;;;;17.98;15.48;;;22.40;31.10;;;;;;4997347;28;20476;-39
2021/01/19 01:49:05;;;;;;;16.83;14.43;;;22.40;31.10;;;;;;4991629;28;20133;-38
2021/01/19 01:51:33;;;;;;;15.98;13.98;;;22.40;31.10;;;;;;4996203;28;20044;-39
2021/01/19 01:54:01;;;;;;;17.63;15.00;;;22.30;31.10;;;;;;4977672;28;20463;-39
2021/01/19 01:56:27;;;;;;;16.23;13.77;;;22.30;31.10;;;;;;5002678;28;20037;-39
2021/01/19 01:58:53;;;;;;;18.77;15.38;;;22.30;31.20;;;;;;5006212;28;20046;-38
2021/01/19 02:01:19;;;;;;;17.75;15.32;;;22.30;31.10;;;;;;5008773;28;20150;-40
2021/01/19 02:03:46;;;;;;;17.52;15.27;;;22.30;31.10;;;;;;4996115;28;20035;-40
2021/01/19 02:06:15;;;;;;;18.42;15.23;;;22.30;31.10;;;;;;5008017;28;20337;-40
2021/01/19 02:09:10;;;;;;;18.80;15.18;;;22.30;31.10;;;;;;4992149;28;20121;-40
2021/01/19 02:12:03;;;;;;;18.02;15.52;;;22.30;31.10;;;;;;4983751;28;20042;-41
2021/01/19 02:14:34;;;;;;;18.45;15.25;;;22.30;31.10;;;;;;4982251;28;20101;-40
2021/01/19 02:17:09;;;;;;;18.30;15.00;;;22.20;31.10;;;;;;4992932;28;20057;-44
2021/01/19 02:20:04;;;;;;;17.98;15.13;;;22.20;31.20;;;;;;4995599;28;20057;-41
2021/01/19 02:22:50;;;;;;;17.80;15.15;;;22.20;31.10;;;;;;4982972;28;20271;-40
2021/01/19 02:25:49;;;;;;;17.75;14.82;;;22.20;31.10;;;;;;5003045;28;20064;-39
2021/01/19 02:28:19;;;;;;;18.98;15.52;;;22.20;31.10;;;;;;4997781;28;20042;-40
2021/01/19 02:31:09;;;;;;;19.38;15.75;;;22.20;31.20;;;;;;4994265;28;20124;-38
2021/01/19 02:34:03;;;;;;;16.38;14.57;;;22.10;31.00;;;;;;4994040;28;20031;-40
2021/01/19 02:36:41;;;;;;;17.63;15.52;;;22.20;31.10;;;;;;4990926;28;20464;-39
2021/01/19 02:39:10;;;;;;;18.73;15.40;;;22.10;31.10;;;;;;4995501;28;20437;-41
2021/01/19 02:41:41;;;;;;;18.10;16.15;;;22.10;31.10;;;;;;5001410;28;20034;-40
2021/01/19 02:44:17;;;;;;;19.10;16.95;;;22.10;31.10;;;;;;4992100;28;20022;-40
2021/01/19 02:46:45;;;;;;;18.63;15.00;;;22.10;31.10;;;;;;4976595;28;20038;-40
2021/01/19 02:49:12;;;;;;;17.58;15.40;;;22.10;31.10;;;;;;4993942;28;20037;-39
2021/01/19 02:51:38;;;;;;;18.77;15.55;;;22.10;31.10;;;;;;4992782;28;20041;-40
2021/01/19 02:54:04;;;;;;;20.13;15.65;;;22.10;31.10;;;;;;4989310;28;20038;-39
2021/01/19 02:56:58;;;;;;;18.27;15.02;;;22.00;31.00;;;;;;4995071;28;20322;-40
2021/01/19 02:59:34;;;;;;;16.95;15.02;;;22.00;31.00;;;;;;4993849;28;20046;-39
2021/01/19 03:02:11;;;;;;;17.48;15.55;;;22.00;31.60;;;;;;5007027;28;20103;-39
2021/01/19 03:04:39;;;;;;;17.98;15.45;;;22.00;31.00;;;;;;4992453;28;20337;-39
2021/01/19 03:07:08;;;;;;;18.75;15.70;;;22.00;31.00;;;;;;4991336;28;20037;-40
2021/01/19 03:09:42;;;;;;;18.08;14.90;;;22.00;31.00;;;;;;4977240;28;20034;-37
2021/01/19 03:12:12;;;;;;;18.57;15.63;;;22.00;31.00;;;;;;5001560;28;20406;-38
2021/01/19 03:14:38;;;;;;;17.10;14.57;;;22.00;31.00;;;;;;4975431;28;20278;-39
2021/01/19 03:17:08;;;;;;;18.65;15.73;;;22.00;31.00;;;;;;5009774;28;20034;-43
2021/01/19 03:19:39;;;;;;;18.17;15.18;;;22.00;31.00;;;;;;4991604;28;20053;-39
2021/01/19 03:22:06;;;;;;;20.73;16.80;;;22.00;31.00;;;;;;5005058;28;20100;-41
2021/01/19 03:24:32;;;;;;;19.30;15.88;;;22.00;31.00;;;;;;4992254;28;20448;-39
2021/01/19 03:26:58;;;;;;;19.98;16.55;;;21.90;31.00;;;;;;4991745;28;20108;-39
2021/01/19 03:29:24;;;;;;;20.30;16.50;;;21.90;31.00;;;;;;4989334;28;20046;-39
2021/01/19 03:31:50;;;;;;;18.70;15.40;;;21.90;31.00;;;;;;5001603;28;20030;-39
2021/01/19 03:34:16;;;;;;;18.13;15.52;;;21.90;31.00;;;;;;4991441;28;20040;-41
2021/01/19 03:36:42;;;;;;;18.17;16.08;;;21.90;31.00;;;;;;4991936;28;20030;-41
2021/01/19 03:39:08;;;;;;;17.02;14.68;;;21.90;31.00;;;;;;5008186;28;20052;-39
2021/01/19 03:41:34;;;;;;;18.00;15.05;;;21.90;31.00;;;;;;4999638;28;20031;-39
2021/01/19 03:44:00;;;;;;;19.50;16.10;;;21.90;31.00;;;;;;4995186;28;20038;-39
2021/01/19 03:46:26;;;;;;;17.45;14.65;;;21.90;31.70;;;;;;5001678;28;20452;-39
2021/01/19 03:48:52;;;;;;;17.20;14.75;;;21.80;31.00;;;;;;4993335;28;20027;-40
2021/01/19 03:51:19;;;;;;;18.48;15.13;;;21.90;31.00;;;;;;4991374;28;20038;-38
2021/01/19 03:53:45;;;;;;;18.60;15.25;;;21.80;31.00;;;;;;4992803;28;20037;-39
2021/01/19 03:56:10;;;;;;;17.45;14.88;;;21.80;31.00;;;;;;5000902;28;20329;-45
2021/01/19 03:58:36;;;;;;;18.70;15.00;;;21.80;31.00;;;;;;4996817;28;20043;-42
2021/01/19 04:01:02;;;;;;;17.13;14.40;;;21.80;31.00;;;;;;4998018;28;20033;-40
2021/01/19 04:03:28;;;;;;;18.33;15.02;;;21.80;31.00;;;;;;4992091;28;20442;-41
2021/01/19 04:05:54;;;;;;;17.23;14.52;;;21.80;31.10;;;;;;4994505;28;20093;-39
2021/01/19 04:08:20;;;;;;;17.27;13.98;;;21.80;31.10;;;;;;4991697;28;20031;-41
2021/01/19 04:10:48;;;;;;;16.48;13.93;;;21.80;31.10;;;;;;5003043;28;20088;-38
2021/01/19 04:13:20;;;;;;;17.27;14.15;;;21.80;31.10;;;;;;4993278;28;20030;-41
2021/01/19 04:15:46;;;;;;;17.20;14.38;;;21.70;31.00;;;;;;4992935;28;20323;-39
2021/01/19 04:18:13;;;;;;;17.13;15.02;;;21.70;31.10;;;;;;4993698;28;20074;-42
2021/01/19 04:20:39;;;;;;;16.40;14.55;;;21.70;31.10;;;;;;4979510;28;20038;-44
2021/01/19 04:23:05;;;;;;;17.85;15.10;;;21.70;31.10;;;;;;4997164;28;20050;-41
2021/01/19 04:25:31;;;;;;;18.63;14.70;;;21.70;31.20;;;;;;4981545;28;20100;-41
2021/01/19 04:27:57;;;;;;;15.93;13.90;;;21.70;31.20;;;;;;4995707;28;20046;-40
2021/01/19 04:30:23;;;;;;;19.05;14.90;;;21.70;31.20;;;;;;4992937;28;20182;-41
2021/01/19 04:32:49;;;;;;;17.83;14.82;;;21.70;31.40;;;;;;4994841;28;20049;-40
2021/01/19 04:35:15;;;;;;;18.65;14.73;;;21.70;31.50;;;;;;4992422;28;20031;-42
2021/01/19 04:37:42;;;;;;;18.70;14.63;;;21.70;31.50;;;;;;4996448;28;20406;-42
2021/01/19 04:40:09;;;;;;;16.75;13.68;;;21.70;31.40;;;;;;4995719;28;20034;-39
2021/01/19 04:42:37;;;;;;;16.73;14.13;;;21.70;31.40;;;;;;4999491;28;20345;-43
2021/01/19 04:45:05;;;;;;;15.85;13.27;;;21.70;31.40;;;;;;4992032;28;20030;-39
2021/01/19 04:47:33;;;;;;;16.42;13.70;;;21.70;31.50;;;;;;4977791;28;20038;-42
2021/01/19 04:50:01;;;;;;;14.65;12.82;;;21.70;31.40;;;;;;4995444;28;20033;-43
2021/01/19 04:52:29;;;;;;;14.43;12.48;;;21.70;31.40;;;;;;5004414;28;20108;-41
2021/01/19 04:55:12;;;;;;;15.63;13.05;;;21.70;31.40;;;;;;4997949;28;20045;-42
2021/01/19 04:57:41;;;;;;;15.20;13.10;;;21.70;31.50;;;;;;4995246;28;20129;-41
2021/01/19 05:00:07;;;;;;;16.15;12.82;;;21.70;31.50;;;;;;4994512;28;20117;-43
2021/01/19 05:02:50;;;;;;;15.05;12.40;;;21.70;31.50;;;;;;4995373;28;20097;-39
2021/01/19 05:05:36;;;;;;;13.40;11.73;;;21.60;31.40;;;;;;4995442;28;20034;-39
2021/01/19 05:08:02;;;;;;;14.50;12.20;;;21.60;31.50;;;;;;4999781;28;20030;-41
2021/01/19 05:10:36;;;;;;;15.50;12.50;;;21.60;31.50;;;;;;4994663;28;20041;-39
2021/01/19 05:13:12;;;;;;;14.18;11.25;;;21.60;31.50;;;;;;4995296;28;20022;-39
2021/01/19 05:15:46;;;;;;;12.88;11.27;;;21.60;31.50;;;;;;4991261;28;20042;-41
2021/01/19 05:18:15;;;;;;;13.27;11.10;;;21.60;31.50;;;;;;4995387;28;20057;-39
2021/01/19 05:20:45;;;;;;;13.73;11.52;;;21.60;31.60;;;;;;4996394;28;20030;-40
2021/01/19 05:23:22;;;;;;;13.23;10.48;;;21.60;31.60;;;;;;4987039;28;20023;-40
2021/01/19 05:25:58;;;;;;;12.32;10.50;;;21.50;31.50;;;;;;5004239;28;20040;-41
2021/01/19 05:28:43;;;;;;;13.25;10.32;;;21.50;31.50;;;;;;5004003;28;20059;-38
2021/01/19 05:31:15;;;;;;;;;;;21.50;31.50;;;;;;4992956;28;20026;-41
2021/01/19 05:33:55;;;;;;;11.40;9.40;;;21.50;31.60;;;;;;4995301;28;19910;-41
2021/01/19 05:36:22;;;;;;;10.57;8.55;;;21.50;31.60;;;;;;4992539;28;20030;-38
2021/01/19 05:38:50;;;;;;;11.55;9.65;;;21.50;31.60;;;;;;4991647;28;20041;-39
2021/01/19 05:41:30;;;;;;;10.85;9.27;;;21.40;31.60;;;;;;4999098;28;20030;-40
2021/01/19 05:44:07;;;;;;;11.13;9.60;;;21.40;31.60;;;;;;4994865;28;20050;-40
2021/01/19 05:46:33;;;;;;;12.25;9.63;;;21.50;32.30;;;;;;5000772;28;20072;-40
2021/01/19 05:49:01;;;;;;;10.93;8.65;;;21.40;31.70;;;;;;5008063;28;20450;-43
2021/01/19 05:51:31;;;;;;;11.65;8.63;;;21.40;31.70;;;;;;4994892;28;20491;-40
2021/01/19 05:53:58;;;;;;;10.40;9.15;;;21.40;31.70;;;;;;4994809;28;20030;-39
2021/01/19 05:56:26;;;;;;;10.25;8.20;;;21.40;31.70;;;;;;5000870;28;20034;-42
2021/01/19 05:58:53;;;;;;;10.90;8.57;;;21.40;31.70;;;;;;5001894;28;20129;-42
2021/01/19 06:01:41;;;;;;;10.27;7.88;;;21.40;31.80;;;;;;4992600;28;20441;-40
2021/01/19 06:04:06;;;;;;;10.90;8.13;;;21.40;31.70;;;;;;4993836;28;20058;-42
2021/01/19 06:06:33;;;;;;;8.68;7.32;;;21.40;31.80;;;;;;4997684;28;20421;-39
2021/01/19 06:09:01;;;;;;;10.23;7.55;;;21.40;31.80;;;;;;4995028;28;20078;-42
2021/01/19 06:11:27;;;;;;;8.15;6.85;;;21.40;31.80;;;;;;4992892;28;20030;-39
2021/01/19 06:13:54;;;;;;;9.02;6.70;;;21.40;31.80;;;;;;4997267;28;20125;-39
2021/01/19 06:16:26;;;;;;;8.50;7.10;;;21.40;31.80;;;;;;5000328;28;20092;-41
2021/01/19 06:18:53;;;;;;;7.85;6.53;;;21.40;31.80;;;;;;4995315;28;20042;-38
2021/01/19 06:21:34;;;;;;;8.43;6.38;;;21.30;31.80;;;;;;4992668;28;20038;-39
2021/01/19 06:24:01;;;;;;;8.63;6.85;;;21.40;31.90;;;;;;5003460;28;20025;-39
2021/01/19 06:26:27;;;;;;;7.63;6.47;;;21.30;31.80;;;;;;4994638;28;20045;-40
2021/01/19 06:28:53;;;;;;;8.27;6.53;;;21.30;31.80;;;;;;4997126;28;20125;-40
2021/01/19 06:31:23;;;;;;;8.05;6.55;;;21.40;31.90;;;;;;4999304;28;20426;-40
2021/01/19 06:33:50;;;;;;;7.65;6.13;;;21.40;31.90;;;;;;4994043;28;20100;-41
2021/01/19 06:36:19;;;;;;;6.75;5.55;;;21.30;31.90;;;;;;4999966;28;20129;-39
2021/01/19 06:38:49;;;;;;;6.47;5.65;;;21.30;32.00;;;;;;4997945;28;20355;-40
2021/01/19 06:41:19;;;;;;;6.90;5.57;;;21.30;32.00;;;;;;4993030;28;20038;-39
2021/01/19 06:43:54;;;;;;;6.65;5.75;;;21.30;32.00;;;;;;4993657;28;20038;-39
2021/01/19 06:46:20;;;;;;;6.38;5.30;;;21.30;32.00;;;;;;4993438;28;20354;-40
2021/01/19 06:48:46;;;;;;;6.65;5.00;;;21.30;32.00;;;;;;5004055;28;20030;-42
2021/01/19 06:51:13;;;;;;;5.45;4.80;;;21.30;32.00;;;;;;4979123;28;20413;-40
2021/01/19 06:53:43;;;;;;;5.95;4.63;;;21.30;32.10;;;;;;4999530;28;20486;-40
2021/01/19 06:56:13;;;;;;;5.97;4.93;;;21.30;32.10;;;;;;4976123;28;20091;-43
2021/01/19 06:58:56;;;;;;;5.20;4.18;;;21.30;32.10;;;;;;5008446;28;20033;-40
2021/01/19 07:01:31;;;;;;;6.53;4.70;;;21.30;32.10;;;;;;4998107;28;20042;-39
2021/01/19 07:04:12;;;;;;;5.15;4.63;;;21.30;32.20;;;;;;4998267;28;20104;-41
2021/01/19 07:07:09;;;;;;;5.28;4.40;;;21.30;32.20;;;;;;4984257;28;20380;-42
2021/01/19 07:09:53;;;;;;;5.18;3.88;;;21.20;32.10;;;;;;5004765;28;20030;-40
2021/01/19 07:12:31;;;;;;;5.60;4.38;;;21.20;32.20;;;;;;4993504;28;20034;-38
2021/01/19 07:15:04;;;;;;;6.03;4.05;;;21.20;32.20;;;;;;4992022;28;20038;-41
2021/01/19 07:17:50;;;;;;;5.18;3.85;;;21.20;32.30;;;;;;4994152;28;20457;-39
2021/01/19 07:20:28;;;;;;;4.57;3.67;;;21.20;32.20;;;;;;4998614;28;20050;-39
2021/01/19 07:22:59;;;;;;;4.95;3.90;;;21.20;32.40;;;;;;4994257;28;20038;-39
2021/01/19 07:25:26;;;;;;;4.68;3.92;;;21.20;32.30;;;;;;4999835;28;20030;-42
2021/01/19 07:27:52;;;;;;;4.90;3.35;;;21.20;32.30;;;;;;4991599;28;20046;-40
2021/01/19 07:30:20;;;;;;;4.10;3.13;;;21.20;32.40;;;;;;4991348;28;20143;-39
2021/01/19 07:32:50;;;;;;;4.45;3.47;;;21.20;32.40;;;;;;4995967;28;20331;-40
2021/01/19 07:35:21;;;;;;;4.90;3.40;;;21.20;32.40;;;;;;5001710;28;20092;-62
2021/01/19 07:37:55;;;;;;;4.15;3.40;;;21.20;32.50;;;;;;5013979;28;20026;-40
2021/01/19 07:40:21;;;;;;;6.00;3.20;;;21.20;32.50;;;;;;4995294;28;20038;-38
2021/01/19 07:42:47;;;;;;;3.45;2.72;;;21.20;32.50;;;;;;4993921;28;20038;-40
2021/01/19 07:45:13;;;;;;;5.20;3.33;;;21.10;32.50;;;;;;4991155;28;20074;-44
2021/01/19 07:47:42;;;;;;;5.72;4.05;;;21.20;32.70;;;;;;4995828;28;20034;-48
2021/01/19 07:50:16;;;;;;;6.65;4.28;;;21.20;33.00;;;;;;4991549;28;20045;-45
2021/01/19 07:52:45;;;;;;;6.10;3.97;;;21.30;33.10;;;;;;4993216;28;20345;-45
2021/01/19 07:55:22;;;;;;;5.82;4.40;;;21.40;33.10;;;;;;4996192;28;20050;-40
2021/01/19 07:57:52;;;;;;;4.82;3.70;;;21.60;33.00;;;;;;5008987;28;20353;-43
2021/01/19 08:00:23;;;;;;;4.53;3.85;;;21.70;32.80;;;;;;4996533;28;20103;-42
2021/01/19 08:03:01;;;;;;;4.88;3.38;;;21.80;32.60;;;;;;5000658;28;20362;-43
2021/01/19 08:05:27;;;;;;;5.50;3.70;;;22.00;32.50;;;;;;4997181;28;20138;-44
2021/01/19 08:07:53;;;;;;;7.25;4.07;;;22.10;32.40;;;;;;4967469;28;20034;-44
2021/01/19 08:10:21;;;;;;;4.75;3.72;;;22.30;32.40;;;;;;4997153;28;20030;-42
2021/01/19 08:12:48;;;;;;;5.13;3.63;;;22.40;32.30;;;;;;4997277;28;20327;-44
2021/01/19 08:15:28;;;;;;;5.53;3.58;;;22.50;32.30;;;;;;4998156;28;20022;-44
2021/01/19 08:17:56;;;;;;;4.63;3.33;;;22.70;32.30;;;;;;4994051;28;20069;-45
2021/01/19 08:20:23;;;;;;;5.18;3.42;;;22.80;32.10;;;;;;4996422;28;20030;-44
2021/01/19 08:22:49;;;;;;;5.00;3.78;;;22.90;32.00;;;;;;4998332;28;20453;-42
2021/01/19 08:25:28;;;;;;;4.97;3.28;;;23.00;31.90;;;;;;4996489;28;20034;-47
2021/01/19 08:27:57;;;;;;;3.30;3.00;;;23.20;31.80;;;;;;4996199;28;20050;-43
2021/01/19 08:30:26;;;;;;;4.45;2.90;;;23.30;32.30;;;;;;4996993;28;20031;-45
2021/01/19 08:32:56;;;;;;;7.03;3.03;;;23.40;31.60;;;;;;4995874;28;20333;-43
2021/01/19 08:35:24;;;;;;;3.95;2.83;;;23.50;31.60;;;;;;4997651;28;20049;-46
2021/01/19 08:37:52;;;;;;;5.07;3.22;;;23.60;31.50;;;;;;4996112;28;20084;-42
2021/01/19 08:40:39;;;;;;;3.92;2.78;;;23.80;31.40;;;;;;5006496;28;20109;-40
2021/01/19 08:43:07;;;;;;;3.42;2.50;;;23.90;31.30;;;;;;5010890;28;20338;-45
2021/01/19 08:45:40;;;;;;;4.38;2.28;;;24.00;31.20;;;;;;5016244;28;20038;-46
2021/01/19 08:48:09;;;;;;;4.00;2.13;;;24.10;31.10;;;;;;4996064;28;20038;-42
2021/01/19 08:50:37;;;;;;;2.88;2.05;;;24.20;31.00;;;;;;5005002;28;20083;-43
2021/01/19 08:53:07;;;;;;;3.65;2.42;;;24.30;30.90;;;;;;5001396;28;20472;-41
2021/01/19 08:55:34;;;;;;;2.20;1.65;;;24.40;30.80;;;;;;4977731;28;20046;-40
2021/01/19 08:57:59;;;;;;;4.70;2.03;;;24.50;30.60;;;;;;4996630;28;20033;-39
2021/01/19 09:00:26;;;;;;;2.60;1.92;;;24.60;30.50;;;;;;5016602;28;20030;-42
2021/01/19 09:02:53;;;;;;;2.03;1.35;;;24.70;30.40;;;;;;5010907;28;20099;-40
2021/01/19 09:05:31;;;;;;;2.53;1.75;;;24.80;30.30;;;;;;4989002;28;20034;-40
2021/01/19 09:07:58;;;;;;;2.75;2.28;;;24.80;30.20;;;;;;4984022;28;20023;-41
2021/01/19 09:10:27;;;;;;;3.45;2.58;;;24.90;30.30;;;;;;5000877;28;20358;-44
2021/01/19 09:12:54;;;;;;;5.78;2.78;;;24.90;30.20;;;;;;4999797;28;20036;-39
2021/01/19 09:15:21;;;;;;;4.93;3.80;;;25.00;30.30;;;;;;4996228;28;20121;-39
2021/01/19 09:17:57;;;;;;;4.80;4.18;;;25.10;30.40;;;;;;4996197;28;20030;-40
2021/01/19 09:20:27;;;;;;;5.25;4.65;;;25.10;30.20;;;;;;4995744;28;20033;-41
2021/01/19 09:22:53;;;;;;;5.15;4.15;;;25.20;30.20;;;;;;4992584;28;20512;-50
2021/01/19 09:25:22;;;;;;;5.80;4.55;;;25.20;30.20;;;;;;4996999;28;20040;-45
2021/01/19 09:27:48;;;;;;;5.88;5.15;;;25.20;30.20;;;;;;4995365;28;20343;-50
2021/01/19 09:30:18;;;;;;;7.55;6.20;;;25.20;30.30;;;;;;4995843;28;20096;-49
2021/01/19 09:32:46;;;;;;;6.95;6.25;;;25.20;30.30;;;;;;4995692;28;20034;-48
2021/01/19 09:35:13;;;;;;;6.82;6.05;;;25.20;30.40;;;;;;4996387;28;20117;-52
2021/01/19 09:37:41;;;;;;;8.07;7.13;;;25.30;30.40;;;;;;4995141;28;20037;-53
2021/01/19 09:40:14;;;;;;;9.82;7.80;;;25.30;30.40;;;;;;4995260;28;20026;-50
2021/01/19 09:42:41;;;;;;;9.25;7.97;;;25.30;30.40;;;;;;4991737;28;20088;-53
2021/01/19 09:45:11;;;;;;;10.02;9.02;;;25.30;30.40;;;;;;4996008;28;20038;-49
2021/01/19 09:47:41;;;;;;;11.18;9.90;;;25.40;30.40;;;;;;4995858;28;20426;-46
2021/01/19 09:50:09;;;;;;;11.02;9.88;;;25.40;30.40;;;;;;4994866;28;20050;-53
2021/01/19 09:52:36;;;;;;;10.85;9.73;;;25.40;30.40;;;;;;4994794;28;20311;-51
2021/01/19 09:55:12;;;;;;;11.02;9.90;;;25.40;30.30;;;;;;4978169;28;20038;-52
2021/01/19 09:57:38;;;;;;;10.52;9.43;;;25.40;30.30;;;;;;4994253;28;21856;-47
2021/01/19 10:00:06;;;;;;;11.30;10.10;;;25.40;30.20;;;;;;4995470;28;20481;-51
2021/01/19 10:02:39;;;;;;;11.27;10.07;;;25.40;30.10;;;;;;4993402;28;20046;-47
2021/01/19 10:05:06;;;;;;;11.27;10.05;;;25.40;30.10;;;;;;4991636;28;20331;-47
2021/01/19 10:07:33;;;;;;;10.57;9.48;;;25.50;30.10;;;;;;4998608;28;20034;-45
2021/01/19 10:10:06;;;;;;;11.13;9.93;;;25.40;30.00;;;;;;5000382;28;20113;-48
2021/01/19 10:12:32;;;;;;;11.63;10.43;;;25.40;30.00;;;;;;4995192;28;20045;-44
2021/01/19 10:14:58;;;;;;;12.45;10.95;;;25.40;30.60;;;;;;5003899;28;20030;-45
2021/01/19 10:17:31;;;;;;;10.73;9.63;;;25.40;30.00;;;;;;4978311;28;20030;-46
2021/01/19 10:20:15;;;;;;;13.83;10.37;;;25.40;30.00;;;;;;4984320;28;20034;-45
2021/01/19 10:22:42;;;;;;;;;;;25.40;30.10;;;;;;4976266;28;20385;-44
2021/01/19 10:25:13;;;;;;;12.50;11.20;;;25.40;30.40;;;;;;4990613;28;19928;-49
2021/01/19 10:27:41;;;;;;;13.48;12.10;;;25.30;30.50;;;;;;4984156;28;20125;-44
2021/01/19 10:30:08;;;;;;;13.50;12.10;;;25.30;30.50;;;;;;5003387;28;20333;-48
2021/01/19 10:32:52;;;;;;;15.63;13.98;;;25.30;30.50;;;;;;4994430;28;20071;-42
2021/01/19 10:35:30;;;;;;;14.98;13.38;;;25.30;30.60;;;;;;4996160;28;20037;-44
2021/01/19 10:38:09;;;;;;;14.98;13.05;;;25.20;30.60;;;;;;5001233;28;20507;-44
2021/01/19 10:40:36;;;;;;;15.10;13.50;;;25.20;30.70;;;;;;4988567;28;20023;-44
2021/01/19 10:43:11;;;;;;;15.95;14.25;;;25.20;30.80;;;;;;4982719;28;20030;-46
2021/01/19 10:45:40;;;;;;;15.18;13.50;;;25.10;30.80;;;;;;4999741;28;20094;-44
2021/01/19 10:48:19;;;;;;;16.98;15.18;;;25.10;30.90;;;;;;5000958;28;20057;-46
2021/01/19 10:50:46;;;;;;;17.52;15.00;;;25.10;31.00;;;;;;5001105;28;20026;-43
2021/01/19 10:53:12;;;;;;;15.85;14.25;;;25.10;31.00;;;;;;4994017;28;20034;-48
2021/01/19 10:55:37;;;;;;;16.20;14.60;;;25.00;31.10;;;;;;4987782;28;20422;-47
2021/01/19 10:58:05;;;;;;;16.58;14.65;;;25.00;31.10;;;;;;5004751;28;20053;-47
2021/01/19 11:00:32;;;;;;;16.60;14.77;;;25.00;31.20;;;;;;4993893;28;20096;-49
2021/01/19 11:03:00;;;;;;;16.27;14.50;;;25.00;31.20;;;;;;4994582;28;20038;-47
2021/01/19 11:05:26;;;;;;;17.27;15.48;;;25.00;31.30;;;;;;4994869;28;20038;-43
2021/01/19 11:07:54;;;;;;;18.08;16.17;;;25.00;31.40;;;;;;5011543;28;20026;-40
2021/01/19 11:10:22;;;;;;;17.67;15.88;;;25.00;31.40;;;;;;4996331;28;20180;-42
2021/01/19 11:12:50;;;;;;;19.17;17.13;;;24.90;31.40;;;;;;4995408;28;20033;-43
2021/01/19 11:15:16;;;;;;;18.60;16.63;;;24.90;31.50;;;;;;4993755;28;20346;-44
2021/01/19 11:17:42;;;;;;;19.33;17.33;;;24.90;31.60;;;;;;4996793;28;20037;-39
2021/01/19 11:20:11;;;;;;;19.30;17.30;;;24.90;31.70;;;;;;4999211;28;20030;-40
2021/01/19 11:22:37;;;;;;;18.70;16.80;;;24.90;31.80;;;;;;4994490;28;20062;-42
2021/01/19 11:25:05;;;;;;;18.20;16.33;;;24.80;31.80;;;;;;4988395;28;20483;-46
2021/01/19 11:27:31;;;;;;;20.80;18.60;;;24.80;31.90;;;;;;4977510;28;20046;-49
2021/01/19 11:29:57;;;;;;;20.73;17.73;;;24.80;32.30;;;;;;4978640;28;20163;-41
2021/01/19 11:32:23;;;;;;;20.75;18.65;;;24.70;32.60;;;;;;5003472;28;20417;-46
2021/01/19 11:34:48;;;;;;;20.05;18.02;;;24.70;33.00;;;;;;5005717;28;20115;-44
2021/01/19 11:37:15;;;;;;;20.75;18.55;;;24.70;33.10;;;;;;5003013;28;20042;-46
2021/01/19 11:39:41;;;;;;;22.80;19.33;;;24.70;32.90;;;;;;4989545;28;20041;-47
2021/01/19 11:42:07;;;;;;;21.50;19.30;;;24.60;32.80;;;;;;5002354;28;20073;-45
2021/01/19 11:44:34;;;;;;;22.08;19.80;;;24.60;32.90;;;;;;5005353;28;20032;-51
2021/01/19 11:46:59;;;;;;;21.67;19.42;;;24.60;32.90;;;;;;5004427;28;20030;-50
2021/01/19 11:49:25;;;;;;;21.13;18.75;;;24.60;33.10;;;;;;5007348;28;20048;-47
2021/01/19 11:51:51;;;;;;;22.33;19.08;;;24.60;33.10;;;;;;5004823;28;20035;-51
2021/01/19 11:54:17;;;;;;;20.05;17.90;;;24.50;33.20;;;;;;5006013;28;20026;-54
2021/01/19 11:56:48;;;;;;;18.42;16.52;;;24.50;33.20;;;;;;4993062;28;20046;-49
2021/01/19 11:59:15;;;;;;;19.98;17.95;;;24.50;33.20;;;;;;5003637;28;20162;-46
2021/01/19 12:01:41;;;;;;;19.23;17.27;;;24.50;33.40;;;;;;5006276;28;20125;-46
2021/01/19 12:04:08;;;;;;;22.48;20.13;;;24.50;33.40;;;;;;5001146;28;20037;-54
2021/01/19 12:06:39;;;;;;;22.33;19.92;;;24.40;33.40;;;;;;4999892;28;20023;-56
2021/01/19 12:09:10;;;;;;;19.75;17.67;;;24.50;33.50;;;;;;4988009;28;20362;-53
2021/01/19 12:11:54;;;;;;;22.30;19.15;;;24.40;33.40;;;;;;5002285;28;20034;-53
2021/01/19 12:14:22;;;;;;;19.65;17.27;;;24.40;33.40;;;;;;4999762;28;20045;-53
2021/01/19 12:16:52;;;;;;;20.75;18.60;;;24.40;33.40;;;;;;4989502;28;20026;-54
2021/01/19 12:19:18;;;;;;;20.38;17.73;;;24.50;33.50;;;;;;4990231;28;20476;-55
2021/01/19 12:21:48;;;;;;;21.05;18.90;;;24.50;33.50;;;;;;5000895;28;20165;-60
2021/01/19 12:24:16;;;;;;;22.90;18.13;;;24.50;33.50;;;;;;5005026;28;20455;-58
2021/01/19 12:26:45;;;;;;;22.20;19.80;;;24.50;33.60;;;;;;5004422;28;20038;-57
2021/01/19 12:29:15;;;;;;;21.25;19.05;;;24.50;33.70;;;;;;5004259;28;20064;-59
2021/01/19 12:31:41;;;;;;;20.15;18.02;;;24.50;33.70;;;;;;4999467;28;20107;-60
2021/01/19 12:34:08;;;;;;;20.30;18.20;;;24.50;33.80;;;;;;5004690;28;20322;-61
2021/01/19 12:36:34;;;;;;;24.10;15.93;;;24.60;33.80;;;;;;5004670;28;20069;-60
2021/01/19 12:39:01;;;;;;;20.77;16.55;;;24.60;33.90;;;;;;4998622;28;20124;-57
2021/01/19 12:41:29;;;;;;;17.02;15.23;;;24.60;34.00;;;;;;5003622;28;20022;-53
2021/01/19 12:43:56;;;;;;;12.73;11.27;;;24.60;34.10;;;;;;5005727;28;20549;-58
2021/01/19 12:46:28;;;;;;;10.43;8.25;;;24.60;33.30;;;;;;5001812;28;20108;-50